Time;durP1;ratioP1;P1;durP2;ratioP2;P2;SDS_P1;SDS_P2;PMS_P1;PMS_P2;Temp;Humidity;BMP_temperature;BMP_pressure;BME280_temperature;BME280_humidity;BME280_pressure;Samples;Min_cycle;Max_cycle;Signal;HPM_P1;HPM_P2
2021/07/27 00:01:11;;;;;;;9.60;7.15;;;19.90;89.10;;;;;;5075383;28;20020;-81
2021/07/27 00:03:37;;;;;;;7.00;6.30;;;19.80;89.00;;;;;;5076976;28;20024;-81
2021/07/27 00:06:07;;;;;;;10.38;7.30;;;19.80;89.10;;;;;;5056597;28;20034;-80
2021/07/27 00:08:36;;;;;;;8.75;6.80;;;19.80;89.10;;;;;;5056319;28;20483;-80
2021/07/27 00:11:09;;;;;;;8.10;6.43;;;19.80;89.00;;;;;;5074931;28;20020;-80
2021/07/27 00:13:36;;;;;;;8.63;6.22;;;19.80;89.20;;;;;;5076216;28;20527;-80
2021/07/27 00:16:03;;;;;;;8.18;6.78;;;19.80;89.20;;;;;;5076889;28;20485;-80
2021/07/27 00:18:30;;;;;;;7.97;6.82;;;19.80;89.00;;;;;;5075036;28;20024;-80
2021/07/27 00:20:57;;;;;;;8.23;6.85;;;19.70;88.90;;;;;;5074890;28;20028;-80
2021/07/27 00:23:23;;;;;;;10.07;7.78;;;19.70;88.90;;;;;;5076076;28;20025;-80
2021/07/27 00:25:49;;;;;;;11.68;8.48;;;19.70;88.90;;;;;;5058001;28;20032;-80
2021/07/27 00:28:15;;;;;;;11.63;8.27;;;19.70;89.00;;;;;;5075733;28;20029;-80
2021/07/27 00:30:41;;;;;;;9.90;7.70;;;19.60;89.00;;;;;;5074738;28;20055;-80
2021/07/27 00:33:06;;;;;;;9.35;8.13;;;19.60;89.20;;;;;;5075805;28;20461;-80
2021/07/27 00:35:32;;;;;;;11.52;8.35;;;19.60;89.30;;;;;;5076203;28;20029;-81
2021/07/27 00:38:08;;;;;;;11.00;9.10;;;19.60;89.30;;;;;;5075835;28;20036;-81
2021/07/27 00:40:41;;;;;;;12.38;8.73;;;19.50;89.30;;;;;;5074405;28;20115;-80
2021/07/27 00:43:11;;;;;;;12.98;10.50;;;19.50;89.30;;;;;;5074653;28;20021;-80
2021/07/27 00:45:37;;;;;;;14.48;9.43;;;19.50;89.90;;;;;;5075718;28;20481;-80
2021/07/27 00:48:03;;;;;;;12.15;10.15;;;19.40;89.20;;;;;;5075742;28;20033;-80
2021/07/27 00:50:29;;;;;;;11.23;9.80;;;19.40;89.40;;;;;;5075627;28;20082;-80
2021/07/27 00:52:59;;;;;;;12.88;10.00;;;19.40;89.40;;;;;;5074411;28;20058;-80
2021/07/27 00:55:26;;;;;;;12.77;10.02;;;19.40;89.40;;;;;;5075353;28;20385;-81
2021/07/27 00:57:52;;;;;;;11.70;8.95;;;19.40;89.50;;;;;;5075304;28;20037;-81
2021/07/27 01:00:18;;;;;;;11.88;9.63;;;19.40;89.50;;;;;;5073776;28;20045;-81
2021/07/27 01:02:43;;;;;;;13.73;9.32;;;19.30;89.50;;;;;;5075222;28;20025;-80
2021/07/27 01:05:10;;;;;;;15.48;10.45;;;19.30;89.50;;;;;;5074336;28;20025;-80
2021/07/27 01:07:37;;;;;;;11.88;9.45;;;19.30;89.50;;;;;;5057796;28;20028;-80
2021/07/27 01:10:04;;;;;;;12.55;10.50;;;19.20;89.50;;;;;;5073999;28;20036;-80
2021/07/27 01:12:31;;;;;;;13.10;10.55;;;19.20;89.50;;;;;;5074988;28;20477;-80
2021/07/27 01:14:56;;;;;;;12.98;11.35;;;19.20;89.40;;;;;;5073033;28;20036;-80
2021/07/27 01:17:22;;;;;;;13.65;10.57;;;19.20;89.40;;;;;;5074325;28;20039;-80
2021/07/27 01:43:53;;;;;;;16.40;10.95;;;18.90;89.70;;;;;;5073205;28;20024;-80
2021/07/27 01:46:23;;;;;;;13.88;10.60;;;18.90;89.60;;;;;;5074491;28;20028;-80
2021/07/27 01:48:50;;;;;;;12.63;10.57;;;18.90;89.50;;;;;;5073230;28;20078;-80
2021/07/27 01:51:19;;;;;;;11.93;10.25;;;18.80;89.50;;;;;;5073147;28;20511;-80
2021/07/27 01:53:53;;;;;;;14.82;10.05;;;18.90;89.60;;;;;;5074540;28;20029;-81
2021/07/27 01:56:20;;;;;;;13.98;9.95;;;18.90;89.60;;;;;;5073008;28;20039;-80
2021/07/27 01:58:46;;;;;;;14.18;9.25;;;18.90;89.80;;;;;;5074256;28;20041;-80
2021/07/27 02:01:12;;;;;;;14.52;10.15;;;18.80;89.70;;;;;;5072806;28;20032;-80
2021/07/27 02:03:38;;;;;;;13.65;9.38;;;18.80;89.60;;;;;;5053156;28;20033;-80
2021/07/27 02:06:04;;;;;;;12.73;11.13;;;18.80;89.60;;;;;;5069584;28;20078;-80
2021/07/27 02:08:29;;;;;;;13.10;9.73;;;18.80;89.60;;;;;;5054244;28;20469;-80
2021/07/27 02:11:09;;;;;;;13.07;9.55;;;18.80;89.50;;;;;;5052804;28;20546;-80
2021/07/27 02:13:45;;;;;;;17.27;10.20;;;18.70;89.40;;;;;;5054886;28;20077;-80
2021/07/27 02:16:11;;;;;;;11.88;9.02;;;18.70;89.60;;;;;;5065318;28;20025;-81
2021/07/27 02:18:37;;;;;;;14.65;10.07;;;18.70;89.70;;;;;;5055887;28;20394;-80
2021/07/27 02:21:02;;;;;;;14.13;10.13;;;18.60;89.60;;;;;;5073610;28;20036;-80
2021/07/27 02:23:29;;;;;;;13.02;9.88;;;18.60;89.50;;;;;;5072667;28;20099;-80
2021/07/27 02:25:54;;;;;;;14.15;9.73;;;18.60;89.60;;;;;;5073719;28;20834;-80
2021/07/27 02:28:20;;;;;;;12.32;9.52;;;18.60;89.80;;;;;;5056111;28;20119;-80
2021/07/27 02:30:53;;;;;;;10.63;8.75;;;18.60;89.70;;;;;;5072654;28;20034;-81
2021/07/27 02:33:22;;;;;;;13.40;9.35;;;18.50;89.60;;;;;;5052753;28;20040;-81
2021/07/27 02:35:48;;;;;;;13.10;10.05;;;18.50;89.50;;;;;;5070787;28;20055;-81
2021/07/27 02:38:15;;;;;;;13.00;9.55;;;18.50;89.50;;;;;;5065926;28;20032;-81
2021/07/27 02:40:41;;;;;;;11.63;8.55;;;18.50;89.60;;;;;;5070969;28;20029;-80
2021/07/27 02:43:07;;;;;;;12.63;9.88;;;18.40;89.60;;;;;;5071215;28;20039;-80
2021/07/27 02:45:33;;;;;;;13.60;10.02;;;18.40;89.60;;;;;;5072793;28;20029;-80
2021/07/27 02:47:59;;;;;;;10.93;8.85;;;18.40;89.80;;;;;;5072072;28;20046;-80
2021/07/27 02:50:28;;;;;;;11.85;9.77;;;18.40;89.90;;;;;;5072120;28;20033;-80
2021/07/27 02:52:54;;;;;;;13.20;9.98;;;18.40;90.00;;;;;;5080888;28;20059;-80
2021/07/27 02:55:20;;;;;;;11.50;9.15;;;18.30;90.00;;;;;;5071863;28;20025;-80
2021/07/27 02:57:48;;;;;;;13.85;8.73;;;18.40;90.10;;;;;;5073140;28;20072;-80
2021/07/27 03:00:15;;;;;;;10.02;8.77;;;18.40;90.10;;;;;;5073274;28;20115;-80
2021/07/27 03:02:45;;;;;;;15.18;10.60;;;18.40;90.10;;;;;;5071831;28;20028;-80
2021/07/27 03:05:15;;;;;;;14.07;11.05;;;18.40;90.20;;;;;;5072134;28;20040;-80
2021/07/27 03:10:20;;;;;;;15.98;10.60;;;18.40;90.30;;;;;;5071805;28;20025;-80
2021/07/27 03:12:46;;;;;;;12.15;9.50;;;18.30;90.30;;;;;;5071991;28;20043;-80
2021/07/27 03:15:13;;;;;;;14.63;10.48;;;18.30;90.30;;;;;;5073150;28;20024;-80
2021/07/27 03:17:38;;;;;;;12.65;10.23;;;18.30;90.50;;;;;;5072205;28;20025;-80
2021/07/27 03:20:08;;;;;;;13.75;10.23;;;18.40;90.50;;;;;;5072803;28;20039;-81
2021/07/27 03:22:34;;;;;;;17.75;12.45;;;18.40;90.50;;;;;;5071749;28;20048;-81
2021/07/27 03:25:00;;;;;;;15.65;11.35;;;18.40;90.50;;;;;;5072959;28;20070;-80
2021/07/27 03:27:25;;;;;;;18.98;13.25;;;18.30;90.60;;;;;;5072942;28;20393;-80
2021/07/27 03:29:51;;;;;;;18.23;12.23;;;18.40;90.60;;;;;;5071985;28;20533;-80
2021/07/27 03:32:17;;;;;;;23.23;14.77;;;18.40;90.60;;;;;;5071692;28;20412;-80
2021/07/27 03:34:43;;;;;;;20.08;13.02;;;18.30;90.70;;;;;;5072995;28;20135;-80
2021/07/27 03:37:13;;;;;;;22.02;14.82;;;18.30;90.70;;;;;;5072897;28;20083;-80
2021/07/27 03:39:38;;;;;;;17.95;13.00;;;18.30;90.80;;;;;;5073058;28;20024;-80
2021/07/27 03:42:04;;;;;;;19.52;14.40;;;18.30;90.90;;;;;;5038226;28;20033;-81
2021/07/27 03:44:30;;;;;;;24.02;14.32;;;18.30;90.90;;;;;;5052954;28;20032;-81
2021/07/27 03:47:05;;;;;;;25.27;16.05;;;18.30;91.10;;;;;;5052759;28;20037;-81
2021/07/27 03:49:31;;;;;;;31.55;17.17;;;18.40;90.90;;;;;;5051693;28;20063;-81
2021/07/27 03:52:01;;;;;;;23.52;16.67;;;18.40;90.90;;;;;;5051555;28;20025;-81
2021/07/27 03:54:34;;;;;;;19.30;13.93;;;18.30;90.90;;;;;;5072628;28;20013;-81
2021/07/27 03:57:02;;;;;;;17.27;12.18;;;18.30;90.80;;;;;;5054745;28;20497;-81
2021/07/27 03:59:30;;;;;;;23.67;13.35;;;18.40;90.80;;;;;;5072640;28;20107;-80
2021/07/27 04:01:55;;;;;;;20.80;15.33;;;18.40;90.80;;;;;;5071573;28;20067;-80
2021/07/27 04:04:21;;;;;;;21.55;16.38;;;18.30;90.70;;;;;;5055872;28;20276;-80
2021/07/27 04:06:47;;;;;;;23.90;15.05;;;18.30;90.70;;;;;;5070778;28;20074;-80
2021/07/27 04:09:14;;;;;;;23.88;13.68;;;18.30;90.70;;;;;;5075067;28;20055;-80
2021/07/27 04:11:39;;;;;;;22.10;15.18;;;18.40;90.70;;;;;;5075103;28;20564;-80
2021/07/27 04:14:05;;;;;;;25.05;16.13;;;18.40;90.70;;;;;;5076400;28;20071;-80
2021/07/27 04:16:31;;;;;;;22.60;15.90;;;18.40;90.70;;;;;;5076619;28;20025;-80
2021/07/27 04:18:56;;;;;;;27.15;17.15;;;18.40;90.70;;;;;;5075842;28;20036;-80
2021/07/27 04:21:22;;;;;;;30.00;17.27;;;18.40;90.70;;;;;;5075079;28;20025;-80
2021/07/27 04:23:48;;;;;;;25.05;16.63;;;18.50;90.70;;;;;;5076023;28;20031;-80
2021/07/27 04:26:14;;;;;;;25.00;15.90;;;18.50;90.70;;;;;;5058488;28;20666;-80
2021/07/27 04:28:42;;;;;;;27.85;17.27;;;18.50;90.70;;;;;;5076216;28;20056;-80
2021/07/27 04:31:07;;;;;;;24.97;15.73;;;18.50;90.70;;;;;;5076222;28;20108;-80
2021/07/27 04:33:33;;;;;;;29.17;16.65;;;18.50;90.70;;;;;;5073693;28;20107;-80
2021/07/27 04:35:58;;;;;;;22.73;15.90;;;18.50;90.70;;;;;;5075402;28;20020;-80
2021/07/27 04:38:24;;;;;;;26.65;17.05;;;18.60;90.70;;;;;;5074932;28;20493;-80
2021/07/27 04:40:53;;;;;;;31.70;17.42;;;18.50;90.70;;;;;;5073669;28;20040;-80
2021/07/27 04:43:19;;;;;;;25.85;15.25;;;18.60;90.80;;;;;;5050207;28;20529;-80
2021/07/27 04:45:45;;;;;;;25.50;17.65;;;18.60;90.70;;;;;;5074647;28;20116;-80
2021/07/27 04:48:11;;;;;;;34.83;20.67;;;18.70;90.80;;;;;;5075576;28;20021;-80
2021/07/27 04:50:39;;;;;;;26.33;17.80;;;18.70;90.80;;;;;;5075879;28;20028;-80
2021/07/27 04:53:08;;;;;;;35.50;20.73;;;18.70;90.80;;;;;;5074214;28;20059;-80
2021/07/27 04:55:34;;;;;;;30.02;18.65;;;18.70;90.80;;;;;;5074384;28;20024;-80
2021/07/27 04:58:05;;;;;;;29.20;18.65;;;18.70;90.80;;;;;;5058770;28;20056;-80
2021/07/27 05:00:30;;;;;;;29.77;19.83;;;18.80;90.80;;;;;;5069766;28;20037;-80
2021/07/27 05:02:58;;;;;;;28.42;18.15;;;18.70;91.10;;;;;;5074515;28;20032;-80
2021/07/27 05:05:25;;;;;;;31.02;19.85;;;18.70;90.80;;;;;;5075524;28;20099;-80
2021/07/27 05:07:51;;;;;;;33.00;18.85;;;18.70;90.80;;;;;;5075063;28;20100;-80
2021/07/27 05:10:17;;;;;;;31.60;19.08;;;18.70;90.80;;;;;;5075267;28;20040;-80
2021/07/27 05:12:43;;;;;;;30.55;20.25;;;18.70;90.90;;;;;;5074674;28;20043;-81
2021/07/27 05:15:09;;;;;;;32.30;18.63;;;18.70;90.90;;;;;;5079066;28;20040;-80
2021/07/27 05:17:35;;;;;;;30.88;19.33;;;18.70;90.90;;;;;;5077419;28;20033;-80
2021/07/27 05:20:01;;;;;;;33.72;19.98;;;18.70;90.90;;;;;;5073565;28;20671;-80
2021/07/27 05:22:27;;;;;;;32.85;18.23;;;18.70;90.90;;;;;;5073341;28;20035;-80
2021/07/27 05:24:54;;;;;;;27.55;19.23;;;18.70;91.00;;;;;;5075175;28;20393;-80
2021/07/27 05:27:24;;;;;;;30.17;19.30;;;18.70;90.90;;;;;;5073294;28;20051;-81
2021/07/27 05:29:50;;;;;;;30.58;18.20;;;18.70;91.00;;;;;;5074962;28;20028;-81
2021/07/27 05:32:16;;;;;;;33.33;19.83;;;18.80;90.90;;;;;;5075068;28;20048;-81
2021/07/27 05:34:42;;;;;;;34.20;19.55;;;18.80;90.90;;;;;;5074883;28;20046;-81
2021/07/27 05:37:08;;;;;;;32.55;19.85;;;18.80;90.90;;;;;;5073217;28;20115;-80
2021/07/27 05:39:34;;;;;;;33.15;18.58;;;18.80;90.90;;;;;;5074728;28;20040;-81
2021/07/27 05:42:00;;;;;;;35.30;19.38;;;18.80;90.90;;;;;;5073058;28;20071;-81
2021/07/27 05:44:25;;;;;;;30.98;17.75;;;18.80;90.90;;;;;;5056911;28;20119;-81
2021/07/27 05:46:57;;;;;;;29.80;17.77;;;18.90;90.80;;;;;;5073590;28;20047;-81
2021/07/27 05:49:25;;;;;;;30.05;17.77;;;19.10;90.80;;;;;;5073622;28;20031;-80
2021/07/27 05:51:51;;;;;;;26.65;17.75;;;19.20;90.60;;;;;;5074382;28;20394;-80
2021/07/27 05:54:20;;;;;;;27.05;16.65;;;19.20;90.50;;;;;;5074561;28;20025;-80
2021/07/27 05:56:47;;;;;;;;;;;19.30;90.40;;;;;;5072957;28;20037;-80
2021/07/27 05:59:13;;;;;;;24.25;15.48;;;19.30;90.30;;;;;;5074149;28;20347;-80
2021/07/27 06:01:39;;;;;;;26.13;16.35;;;19.30;90.30;;;;;;5069566;28;20024;-80
2021/07/27 06:04:05;;;;;;;24.50;17.00;;;19.30;90.30;;;;;;5094689;28;20025;-80
2021/07/27 06:06:34;;;;;;;28.88;17.73;;;19.30;90.20;;;;;;5092154;28;20093;-79
2021/07/27 06:09:06;;;;;;;;;;;19.40;90.30;;;;;;5073233;28;20028;-80
2021/07/27 06:11:34;;;;;;;22.98;15.57;;;19.40;90.30;;;;;;5073719;28;19909;-80
2021/07/27 06:14:01;;;;;;;27.13;16.80;;;19.30;90.40;;;;;;5067909;28;20025;-79
2021/07/27 06:16:27;;;;;;;25.27;16.65;;;19.30;90.40;;;;;;5069933;28;20024;-79
2021/07/27 06:18:53;;;;;;;23.90;16.00;;;19.30;90.40;;;;;;5073438;28;20040;-79
2021/07/27 06:21:19;;;;;;;25.33;16.98;;;19.40;90.40;;;;;;5073593;28;20028;-79
2021/07/27 06:23:48;;;;;;;25.55;16.02;;;19.50;90.30;;;;;;5073468;28;20044;-79
2021/07/27 06:26:13;;;;;;;26.65;15.75;;;19.50;90.20;;;;;;5073605;28;20031;-79
2021/07/27 06:28:39;;;;;;;23.63;15.95;;;19.50;90.20;;;;;;5073528;28;20104;-79
2021/07/27 06:31:11;;;;;;;24.33;16.23;;;19.60;90.10;;;;;;5072438;28;20028;-79
2021/07/27 06:33:40;;;;;;;20.15;14.57;;;19.70;90.10;;;;;;5073793;28;20107;-79
2021/07/27 06:36:06;;;;;;;21.23;15.13;;;19.70;90.10;;;;;;5073692;28;20078;-79
2021/07/27 06:38:33;;;;;;;20.05;14.73;;;19.70;90.00;;;;;;5088551;28;20036;-79
2021/07/27 06:40:58;;;;;;;19.92;15.45;;;19.80;90.00;;;;;;5073547;28;20029;-80
2021/07/27 06:43:24;;;;;;;21.88;14.60;;;19.90;90.00;;;;;;5073582;28;20026;-79
2021/07/27 06:45:54;;;;;;;22.00;14.35;;;19.90;89.80;;;;;;5073515;28;20099;-79
2021/07/27 06:48:20;;;;;;;24.23;14.85;;;20.00;89.60;;;;;;5072296;28;20024;-79
2021/07/27 06:50:46;;;;;;;19.35;14.43;;;20.10;89.40;;;;;;5072407;28;20442;-79
2021/07/27 06:53:11;;;;;;;20.73;14.38;;;20.10;89.20;;;;;;5073580;28;20048;-79
2021/07/27 06:55:37;;;;;;;21.13;13.55;;;20.20;89.20;;;;;;5072488;28;20024;-79
2021/07/27 06:58:03;;;;;;;21.00;14.50;;;20.20;89.00;;;;;;5072022;28;20489;-79
2021/07/27 07:00:28;;;;;;;19.08;13.43;;;20.20;88.60;;;;;;5073264;28;20094;-80
2021/07/27 07:02:54;;;;;;;19.20;14.20;;;20.30;88.50;;;;;;5071889;28;20028;-79
2021/07/27 07:05:20;;;;;;;19.42;12.10;;;20.30;88.20;;;;;;5088988;28;20025;-79
2021/07/27 07:07:45;;;;;;;17.48;12.82;;;20.40;88.10;;;;;;5071828;28;20405;-79
2021/07/27 07:10:11;;;;;;;19.10;13.88;;;20.50;88.20;;;;;;5071851;28;20036;-80
2021/07/27 07:12:37;;;;;;;15.98;12.02;;;20.50;87.90;;;;;;5073348;28;20042;-80
2021/07/27 07:15:04;;;;;;;18.30;12.60;;;20.70;87.50;;;;;;5072962;28;20028;-80
2021/07/27 07:17:29;;;;;;;21.17;13.80;;;20.80;87.00;;;;;;5072329;28;20032;-80
2021/07/27 07:19:55;;;;;;;17.42;13.10;;;20.80;86.20;;;;;;5071955;28;20085;-80
2021/07/27 07:22:21;;;;;;;16.35;11.90;;;20.70;86.30;;;;;;5073275;28;20028;-80
2021/07/27 07:24:47;;;;;;;19.88;11.63;;;20.70;86.70;;;;;;5071859;28;20020;-80
2021/07/27 07:27:13;;;;;;;20.20;12.60;;;20.80;87.00;;;;;;5071991;28;20525;-80
2021/07/27 07:29:39;;;;;;;18.30;13.05;;;20.80;87.00;;;;;;5073013;28;20024;-80
2021/07/27 07:32:05;;;;;;;20.13;12.45;;;20.80;86.90;;;;;;5072041;28;20071;-80
2021/07/27 07:34:34;;;;;;;18.52;12.05;;;20.80;87.10;;;;;;5071979;28;20032;-80
2021/07/27 07:37:03;;;;;;;18.25;12.02;;;20.80;87.40;;;;;;5073060;28;20029;-80
2021/07/27 07:39:29;;;;;;;;;;;20.90;87.00;;;;;;5074008;28;20059;-80
2021/07/27 07:41:55;;;;;;;16.15;12.88;;;21.00;86.60;;;;;;5076651;28;19966;-80
2021/07/27 07:44:22;;;;;;;19.15;11.90;;;21.10;86.10;;;;;;5059214;28;20401;-80
2021/07/27 07:46:48;;;;;;;16.52;12.00;;;21.30;85.30;;;;;;5077062;28;20027;-80
2021/07/27 07:49:14;;;;;;;12.55;10.43;;;21.50;84.70;;;;;;5075494;28;20037;-81
2021/07/27 07:51:45;;;;;;;17.30;12.07;;;21.70;84.60;;;;;;5075527;28;20362;-81
2021/07/27 07:54:11;;;;;;;13.02;10.52;;;22.00;83.80;;;;;;5074996;28;20037;-81
2021/07/27 07:56:36;;;;;;;19.80;11.07;;;22.20;83.20;;;;;;5076246;28;20104;-81
2021/07/27 07:59:02;;;;;;;13.35;10.48;;;22.40;81.90;;;;;;5075657;28;20371;-81
2021/07/27 08:01:28;;;;;;;14.80;10.43;;;22.50;81.50;;;;;;5075968;28;20035;-81
2021/07/27 08:03:53;;;;;;;16.35;11.25;;;22.60;81.10;;;;;;5059988;28;20037;-80
2021/07/27 08:12:16;;;;;;;14.80;9.15;;;22.70;80.00;;;;;;5058923;28;20369;-80
2021/07/27 08:14:43;;;;;;;13.80;10.55;;;22.80;80.50;;;;;;5075377;28;20054;-80
2021/07/27 08:17:10;;;;;;;13.13;9.97;;;22.90;79.60;;;;;;5088068;28;20477;-80
2021/07/27 08:19:36;;;;;;;15.35;10.50;;;23.00;79.20;;;;;;5076063;28;20283;-80
2021/07/27 08:22:03;;;;;;;16.10;9.98;;;22.90;79.40;;;;;;5076444;28;20021;-80
2021/07/27 08:24:30;;;;;;;14.25;10.90;;;22.70;79.90;;;;;;5076067;28;20029;-80
2021/07/27 08:26:56;;;;;;;15.45;10.32;;;22.60;79.70;;;;;;5075150;28;20024;-83
2021/07/27 08:29:22;;;;;;;11.98;10.27;;;22.60;79.60;;;;;;5074952;28;20035;-83
2021/07/27 08:31:49;;;;;;;14.70;10.15;;;22.80;79.50;;;;;;5074838;28;20063;-82
2021/07/27 08:34:17;;;;;;;14.93;9.40;;;23.10;79.20;;;;;;5076137;28;20035;-83
2021/07/27 08:36:44;;;;;;;13.43;9.95;;;23.30;78.80;;;;;;5074805;28;20423;-83
2021/07/27 08:39:10;;;;;;;11.65;9.35;;;23.50;77.60;;;;;;5075864;28;20036;-82
2021/07/27 08:41:39;;;;;;;17.85;10.10;;;23.70;77.00;;;;;;5074413;28;20056;-83
2021/07/27 08:44:16;;;;;;;12.80;8.93;;;23.90;75.30;;;;;;5075957;28;20020;-83
2021/07/27 08:46:42;;;;;;;13.20;9.93;;;24.00;75.40;;;;;;5075966;28;20024;-83
2021/07/27 08:49:08;;;;;;;14.43;10.43;;;24.10;74.50;;;;;;5075403;28;20025;-83
2021/07/27 08:51:34;;;;;;;15.38;9.55;;;24.00;74.70;;;;;;5074714;28;20417;-83
2021/07/27 08:53:59;;;;;;;12.27;8.90;;;23.90;75.00;;;;;;5091335;28;20028;-82
2021/07/27 08:56:25;;;;;;;18.35;9.48;;;24.00;76.10;;;;;;5075529;28;20036;-82
2021/07/27 08:58:51;;;;;;;15.18;9.77;;;24.20;75.10;;;;;;5057665;28;20056;-83
2021/07/27 09:01:23;;;;;;;9.32;8.35;;;24.40;74.50;;;;;;5074405;28;20052;-82
2021/07/27 09:03:49;;;;;;;18.80;9.60;;;24.60;73.80;;;;;;5075355;28;20098;-82
2021/07/27 09:06:15;;;;;;;11.85;8.75;;;24.60;73.00;;;;;;5075452;28;20029;-83
2021/07/27 09:08:41;;;;;;;15.05;9.82;;;24.70;73.20;;;;;;5075431;28;20096;-82
2021/07/27 09:11:09;;;;;;;10.40;8.60;;;24.70;72.30;;;;;;5075382;28;20028;-82
2021/07/27 09:13:35;;;;;;;12.18;9.38;;;24.60;73.60;;;;;;5075365;28;20503;-83
2021/07/27 09:16:02;;;;;;;10.15;9.10;;;24.70;73.10;;;;;;5075265;28;20108;-83
2021/07/27 09:18:33;;;;;;;12.45;9.70;;;24.60;73.30;;;;;;5075178;28;20055;-83
2021/07/27 09:21:00;;;;;;;14.25;9.68;;;24.60;74.30;;;;;;5090785;28;20410;-82
2021/07/27 09:23:27;;;;;;;11.70;9.43;;;24.50;73.70;;;;;;5073905;28;20020;-82
2021/07/27 09:25:54;;;;;;;13.20;10.05;;;24.40;73.80;;;;;;5075222;28;20040;-82
2021/07/27 09:28:20;;;;;;;13.32;9.95;;;24.10;74.10;;;;;;5073893;28;20059;-82
2021/07/27 09:30:47;;;;;;;14.55;9.82;;;24.00;74.70;;;;;;5057212;28;20581;-82
2021/07/27 09:33:15;;;;;;;21.92;10.43;;;23.80;75.00;;;;;;5073682;28;20029;-82
2021/07/27 09:35:43;;;;;;;15.32;11.25;;;23.70;75.90;;;;;;5074959;28;20114;-82
2021/07/27 09:38:11;;;;;;;12.87;10.20;;;23.70;76.50;;;;;;5074760;28;20059;-82
2021/07/27 09:40:48;;;;;;;19.77;11.90;;;23.80;76.20;;;;;;5074583;28;20326;-82
2021/07/27 09:43:16;;;;;;;15.13;11.15;;;23.80;75.20;;;;;;5074263;28;20363;-83
2021/07/27 09:45:47;;;;;;;14.77;11.73;;;23.70;76.40;;;;;;5074317;28;20059;-83
2021/07/27 09:48:17;;;;;;;17.02;10.80;;;23.70;76.50;;;;;;5072859;28;20542;-83
2021/07/27 09:50:48;;;;;;;13.23;10.55;;;23.70;76.60;;;;;;5074494;28;20025;-82
2021/07/27 09:53:14;;;;;;;15.65;10.85;;;23.70;76.30;;;;;;5074410;28;20047;-82
2021/07/27 09:55:41;;;;;;;15.93;11.02;;;23.80;76.60;;;;;;5074058;28;20028;-83
2021/07/27 09:58:07;;;;;;;11.55;9.75;;;24.00;75.90;;;;;;5073901;28;20561;-82
2021/07/27 10:00:53;;;;;;;13.15;10.40;;;24.20;75.60;;;;;;5074069;28;20044;-83
2021/07/27 10:03:23;;;;;;;13.15;10.45;;;24.30;73.60;;;;;;5074002;28;20096;-82
2021/07/27 10:06:01;;;;;;;14.18;9.50;;;24.40;73.60;;;;;;5073033;28;20027;-82
2021/07/27 10:08:36;;;;;;;10.53;8.90;;;24.50;73.30;;;;;;5074230;28;20465;-83
2021/07/27 10:11:09;;;;;;;11.57;8.70;;;24.50;73.20;;;;;;5074317;28;20028;-83
2021/07/27 10:13:36;;;;;;;13.00;8.55;;;24.50;73.30;;;;;;5074166;28;20028;-83
2021/07/27 10:16:02;;;;;;;14.35;9.57;;;24.50;72.20;;;;;;5072666;28;20121;-83
2021/07/27 10:18:33;;;;;;;12.32;8.32;;;24.40;70.70;;;;;;5074021;28;20469;-83
2021/07/27 10:21:25;;;;;;;17.85;8.98;;;24.30;71.30;;;;;;5073997;28;20078;-83
2021/07/27 10:24:10;;;;;;;11.20;9.20;;;24.10;71.70;;;;;;5073979;28;20020;-82
2021/07/27 10:26:36;;;;;;;12.80;8.27;;;24.00;71.30;;;;;;5073949;28;20024;-82
2021/07/27 10:29:02;;;;;;;10.55;8.50;;;23.90;72.20;;;;;;5073749;28;20029;-82
2021/07/27 10:31:35;;;;;;;9.95;8.05;;;24.00;72.40;;;;;;5073409;28;20126;-82
2021/07/27 10:34:03;;;;;;;10.98;7.97;;;24.10;72.00;;;;;;5073757;28;20033;-81
2021/07/27 10:36:34;;;;;;;13.17;8.27;;;24.30;71.90;;;;;;5073596;28;20063;-82
2021/07/27 10:39:19;;;;;;;10.10;7.60;;;24.50;70.30;;;;;;5073714;28;20032;-83
2021/07/27 10:41:49;;;;;;;9.40;7.35;;;24.80;71.20;;;;;;5072243;28;20150;-82
2021/07/27 10:44:20;;;;;;;10.45;7.68;;;25.00;70.80;;;;;;5072280;28;20032;-82
2021/07/27 10:46:48;;;;;;;9.77;7.60;;;25.40;70.30;;;;;;5073655;28;20021;-82
2021/07/27 10:49:17;;;;;;;14.05;7.70;;;25.60;68.50;;;;;;5072212;28;20033;-82
2021/07/27 10:51:47;;;;;;;7.88;6.38;;;25.80;67.40;;;;;;5072045;28;20020;-82
2021/07/27 10:54:14;;;;;;;10.85;6.63;;;26.00;65.90;;;;;;5056015;28;20035;-82
2021/07/27 10:56:55;;;;;;;8.73;6.40;;;26.30;65.00;;;;;;5073306;28;20035;-81
2021/07/27 10:59:21;;;;;;;7.40;6.60;;;26.40;64.30;;;;;;5053190;28;20029;-83
2021/07/27 11:01:47;;;;;;;10.07;7.05;;;26.60;63.40;;;;;;5051974;28;20052;-84
2021/07/27 11:04:14;;;;;;;7.80;5.60;;;26.60;63.50;;;;;;5052234;28;20498;-85
2021/07/27 11:06:40;;;;;;;7.40;6.25;;;26.70;62.50;;;;;;5055598;28;20028;-83
2021/07/27 11:09:11;;;;;;;7.28;5.95;;;26.70;62.50;;;;;;5071986;28;20128;-83
2021/07/27 11:11:46;;;;;;;7.28;5.32;;;26.70;61.60;;;;;;5073611;28;20043;-82
2021/07/27 11:14:23;;;;;;;7.63;6.25;;;26.60;61.80;;;;;;5072466;28;20025;-83
2021/07/27 11:16:49;;;;;;;8.15;5.90;;;26.50;61.60;;;;;;5072010;28;20032;-83
2021/07/27 11:19:24;;;;;;;10.82;5.85;;;26.40;61.00;;;;;;5072078;28;20028;-83
2021/07/27 11:21:50;;;;;;;9.63;6.05;;;26.30;62.00;;;;;;5072070;28;20405;-82
2021/07/27 11:24:17;;;;;;;7.85;5.78;;;26.20;62.60;;;;;;5089439;28;20124;-83
2021/07/27 11:26:52;;;;;;;11.73;6.47;;;26.20;62.60;;;;;;5076582;28;20131;-83
2021/07/27 11:29:19;;;;;;;7.72;5.85;;;26.10;62.40;;;;;;5075567;28;20036;-83
2021/07/27 11:31:49;;;;;;;11.98;5.65;;;26.00;62.90;;;;;;5074209;28;20154;-83
2021/07/27 11:34:31;;;;;;;10.73;6.05;;;25.90;63.40;;;;;;5074936;28;20032;-83
2021/07/27 11:36:58;;;;;;;9.18;6.63;;;25.80;64.20;;;;;;5072638;28;20048;-83
2021/07/27 11:39:24;;;;;;;9.35;5.65;;;25.80;63.80;;;;;;5055510;28;20025;-82
2021/07/27 11:41:58;;;;;;;9.52;6.53;;;25.80;64.60;;;;;;5072259;28;20028;-83
2021/07/27 11:44:24;;;;;;;9.18;6.18;;;25.70;64.50;;;;;;5073171;28;20037;-83
2021/07/27 11:46:53;;;;;;;7.38;5.40;;;25.70;63.80;;;;;;5071871;28;20397;-82
2021/07/27 11:49:18;;;;;;;8.57;6.05;;;25.60;64.30;;;;;;5073341;28;20029;-83
2021/07/27 11:51:44;;;;;;;11.02;6.70;;;25.60;64.40;;;;;;5071919;28;20028;-83
2021/07/27 11:54:10;;;;;;;6.70;5.90;;;25.60;64.60;;;;;;5071580;28;20028;-83
2021/07/27 11:56:46;;;;;;;12.77;6.53;;;25.60;64.80;;;;;;5073056;28;20036;-83
2021/07/27 11:59:12;;;;;;;11.75;6.65;;;25.60;63.80;;;;;;5071481;28;20555;-82
2021/07/27 12:01:39;;;;;;;7.25;6.15;;;25.60;64.30;;;;;;5071773;28;20024;-83
2021/07/27 12:04:05;;;;;;;8.43;6.05;;;25.60;65.00;;;;;;5071851;28;20044;-83
2021/07/27 12:06:31;;;;;;;11.43;6.10;;;25.70;64.30;;;;;;5072816;28;20420;-83
2021/07/27 12:08:59;;;;;;;8.40;6.00;;;25.70;63.90;;;;;;5071617;28;20071;-84
2021/07/27 12:11:25;;;;;;;8.75;5.97;;;25.70;63.30;;;;;;5073014;28;20468;-83
2021/07/27 12:13:50;;;;;;;9.43;6.25;;;25.80;63.80;;;;;;5071577;28;20041;-83
2021/07/27 12:16:16;;;;;;;11.40;6.65;;;25.80;64.30;;;;;;5071616;28;20047;-83
2021/07/27 12:18:42;;;;;;;11.30;5.93;;;25.90;63.90;;;;;;5071355;28;20112;-83
2021/07/27 12:21:07;;;;;;;6.00;5.40;;;25.90;63.60;;;;;;5071384;28;20099;-83
2021/07/27 12:23:33;;;;;;;9.02;6.47;;;25.90;64.00;;;;;;5071672;28;20474;-83
2021/07/27 12:25:58;;;;;;;8.95;6.10;;;25.80;63.20;;;;;;5072922;28;20031;-82
2021/07/27 12:28:24;;;;;;;6.78;5.80;;;25.70;63.80;;;;;;5075045;28;20134;-83
2021/07/27 12:30:50;;;;;;;10.57;6.35;;;25.70;64.10;;;;;;5075004;28;20067;-83
2021/07/27 12:33:15;;;;;;;10.38;6.25;;;25.60;64.20;;;;;;5075006;28;20073;-83
2021/07/27 12:35:41;;;;;;;11.13;7.13;;;25.70;64.60;;;;;;5076157;28;20044;-83
2021/07/27 12:38:07;;;;;;;9.20;7.20;;;25.80;63.80;;;;;;5075932;28;20032;-83
2021/07/27 12:40:33;;;;;;;11.95;7.05;;;26.00;64.20;;;;;;5074712;28;20035;-83
2021/07/27 12:42:59;;;;;;;9.85;6.72;;;26.10;63.30;;;;;;5074662;28;20032;-83
2021/07/27 12:45:24;;;;;;;10.93;6.50;;;26.30;62.90;;;;;;5074561;28;20032;-83
2021/07/27 12:47:50;;;;;;;10.10;6.43;;;26.40;63.50;;;;;;5075895;28;20031;-83
2021/07/27 12:50:15;;;;;;;9.10;6.93;;;26.40;63.40;;;;;;5075839;28;20049;-83
2021/07/27 12:52:41;;;;;;;8.20;6.45;;;26.40;63.10;;;;;;5075640;28;20054;-83
2021/07/27 12:55:07;;;;;;;8.60;6.68;;;26.40;63.20;;;;;;5074162;28;20034;-83
2021/07/27 12:57:36;;;;;;;7.70;6.90;;;26.50;62.10;;;;;;5073929;28;20067;-83
2021/07/27 13:00:06;;;;;;;8.38;7.10;;;26.60;62.50;;;;;;5074026;28;20394;-83
2021/07/27 13:02:32;;;;;;;7.90;6.55;;;26.60;61.70;;;;;;5075581;28;20031;-83
2021/07/27 13:04:58;;;;;;;7.68;6.55;;;26.70;61.90;;;;;;5075378;28;20021;-83
2021/07/27 13:07:24;;;;;;;8.48;5.88;;;26.70;62.30;;;;;;5074268;28;20024;-83